Time;durP1;ratioP1;P1;durP2;ratioP2;P2;SDS_P1;SDS_P2;PMS_P1;PMS_P2;Temp;Humidity;BMP_temperature;BMP_pressure;BME280_temperature;BME280_humidity;BME280_pressure;Samples;Min_cycle;Max_cycle;Signal;HPM_P1;HPM_P2
2022/09/09 00:02:13;;;;;;;;;;;28.10;91.50;;;;;;5106226;28;19908;-54
2022/09/09 00:04:39;;;;;;;;;;;28.10;91.30;;;;;;5105966;28;19983;-51
2022/09/09 00:07:17;;;;;;;;;;;28.10;91.30;;;;;;5106052;28;19916;-54
2022/09/09 00:09:52;;;;;;;;;;;28.10;91.30;;;;;;5106286;28;19912;-55
2022/09/09 00:12:37;;;;;;;;;;;28.10;91.40;;;;;;5106271;28;20164;-53
2022/09/09 00:15:07;;;;;;;;;;;28.00;91.40;;;;;;5106210;28;19912;-56
2022/09/09 00:17:42;;;;;;;;;;;28.00;91.50;;;;;;5105885;28;19916;-55
2022/09/09 00:20:14;;;;;;;;;;;28.00;91.50;;;;;;5106251;28;19916;-54
2022/09/09 00:22:47;;;;;;;;;;;28.00;91.60;;;;;;5105591;28;20192;-55
2022/09/09 00:25:42;;;;;;;;;;;28.00;91.60;;;;;;5106319;28;19916;-51
2022/09/09 00:28:14;;;;;;;;;;;28.00;91.60;;;;;;5088384;28;19908;-54
2022/09/09 00:30:41;;;;;;;;;;;28.00;91.60;;;;;;5105992;28;19912;-55
2022/09/09 00:33:14;;;;;;;;;;;28.00;91.70;;;;;;5105457;28;19908;-55
2022/09/09 00:35:52;;;;;;;;;;;28.00;91.60;;;;;;5105575;28;20139;-55
2022/09/09 00:38:25;;;;;;;;;;;28.00;91.60;;;;;;5105666;28;20109;-55
2022/09/09 00:40:55;;;;;;;;;;;27.90;91.70;;;;;;5105953;28;20116;-53
2022/09/09 00:43:21;;;;;;;;;;;27.90;91.80;;;;;;5105544;28;19908;-55
2022/09/09 00:46:06;;;;;;;;;;;27.90;92.00;;;;;;5105538;28;20160;-56
2022/09/09 00:48:43;;;;;;;;;;;27.90;91.90;;;;;;5105275;28;19953;-54
2022/09/09 00:51:15;;;;;;;;;;;27.90;92.00;;;;;;5105791;28;19975;-56
2022/09/09 00:53:42;;;;;;;;;;;27.90;92.00;;;;;;5105175;28;19954;-57
2022/09/09 00:56:11;;;;;;;;;;;27.90;92.10;;;;;;5105621;28;19912;-56
2022/09/09 00:58:37;;;;;;;;;;;27.90;92.00;;;;;;5105217;28;19908;-54
2022/09/09 01:01:10;;;;;;;;;;;27.90;92.00;;;;;;5105617;28;19912;-55
2022/09/09 01:03:45;;;;;;;;;;;27.90;92.00;;;;;;5105162;28;19904;-56
2022/09/09 01:06:22;;;;;;;;;;;27.90;92.00;;;;;;5105674;28;19912;-55
2022/09/09 01:08:51;;;;;;;;;;;27.90;92.00;;;;;;5104948;28;19904;-54
2022/09/09 01:11:26;;;;;;;;;;;27.90;92.00;;;;;;5104864;28;19916;-54
2022/09/09 01:14:25;;;;;;;;;;;27.90;92.00;;;;;;5104965;28;19904;-55
2022/09/09 01:16:54;;;;;;;;;;;27.90;92.00;;;;;;5060472;28;20111;-56
2022/09/09 01:19:27;;;;;;;;;;;27.80;92.00;;;;;;5104776;28;19957;-56
2022/09/09 01:22:01;;;;;;;;;;;27.90;92.00;;;;;;5105068;28;20074;-59
2022/09/09 01:24:36;;;;;;;;;;;27.80;91.90;;;;;;5104740;28;19944;-54
2022/09/09 01:27:02;;;;;;;;;;;27.80;92.00;;;;;;5104786;28;19915;-57
2022/09/09 01:29:29;;;;;;;;;;;27.90;92.10;;;;;;5104736;28;20014;-56
2022/09/09 01:31:59;;;;;;;;;;;27.80;92.00;;;;;;5104483;28;19914;-55
2022/09/09 01:34:28;;;;;;;;;;;27.80;92.00;;;;;;5104457;28;19916;-56
2022/09/09 01:36:57;;;;;;;;;;;27.80;92.00;;;;;;5104677;28;19912;-57
2022/09/09 01:39:23;;;;;;;;;;;27.80;92.00;;;;;;5104511;28;19912;-56
2022/09/09 01:41:49;;;;;;;;;;;27.80;92.00;;;;;;5104464;28;19923;-57
2022/09/09 01:44:15;;;;;;;;;;;27.80;92.10;;;;;;5104316;28;20123;-55
2022/09/09 01:46:41;;;;;;;;;;;27.80;92.00;;;;;;5104457;28;19971;-56
2022/09/09 01:49:26;;;;;;;;;;;27.80;92.00;;;;;;5104980;28;20078;-54
2022/09/09 01:51:54;;;;;;;;;;;27.80;92.00;;;;;;5104251;28;19908;-54
2022/09/09 01:54:21;;;;;;;;;;;27.80;92.10;;;;;;5104273;28;19939;-55
2022/09/09 01:56:47;;;;;;;;;;;27.80;92.10;;;;;;5104302;28;19919;-59
2022/09/09 01:59:33;;;;;;;;;;;27.80;92.30;;;;;;5104368;28;19912;-56
2022/09/09 02:02:02;;;;;;;;;;;27.80;92.20;;;;;;5104343;28;19904;-56
2022/09/09 02:04:31;;;;;;;;;;;27.80;92.20;;;;;;5104388;28;19934;-58
2022/09/09 02:06:58;;;;;;;;;;;27.80;92.10;;;;;;5104247;28;19996;-56
2022/09/09 02:09:25;;;;;;;;;;;27.80;92.20;;;;;;5104216;28;19912;-53
2022/09/09 02:11:56;;;;;;;;;;;27.80;92.20;;;;;;5104334;28;19971;-53
2022/09/09 02:14:25;;;;;;;;;;;27.70;92.10;;;;;;5104083;28;19919;-58
2022/09/09 02:16:54;;;;;;;;;;;27.80;92.20;;;;;;5103988;28;19916;-53
2022/09/09 02:19:25;;;;;;;;;;;27.70;92.20;;;;;;5104214;28;19935;-56
2022/09/09 02:21:53;;;;;;;;;;;27.70;92.20;;;;;;5104097;28;19904;-58
2022/09/09 02:24:19;;;;;;;;;;;27.70;92.20;;;;;;5104147;28;20101;-55
2022/09/09 02:26:48;;;;;;;;;;;27.70;92.20;;;;;;5104049;28;19967;-55
2022/09/09 02:29:20;;;;;;;;;;;27.70;92.20;;;;;;5108175;28;19912;-53
2022/09/09 02:31:46;;;;;;;;;;;27.70;92.20;;;;;;5108215;28;19915;-55
2022/09/09 02:34:14;;;;;;;;;;;27.70;92.20;;;;;;5108024;28;19912;-59
2022/09/09 02:36:43;;;;;;;;;;;27.70;92.20;;;;;;5108078;28;19915;-55
2022/09/09 02:39:10;;;;;;;;;;;27.60;92.10;;;;;;5108062;28;19919;-54
2022/09/09 02:41:37;;;;;;;;;;;27.60;92.10;;;;;;5107961;28;19971;-56
2022/09/09 02:44:17;;;;;;;;;;;27.60;92.20;;;;;;5108026;28;20210;-55
2022/09/09 02:47:02;;;;;;;;;;;27.60;92.20;;;;;;5107796;28;19908;-56
2022/09/09 02:49:33;;;;;;;;;;;27.60;92.10;;;;;;5107811;28;19912;-58
2022/09/09 02:52:08;;;;;;;;;;;27.60;92.20;;;;;;5107664;28;19908;-54
2022/09/09 02:54:36;;;;;;;;;;;27.60;92.10;;;;;;5107862;28;19945;-56
2022/09/09 02:57:06;;;;;;;;;;;27.50;92.10;;;;;;5107568;28;19935;-58
2022/09/09 02:59:32;;;;;;;;;;;27.60;92.20;;;;;;5107562;28;20006;-56
2022/09/09 03:01:58;;;;;;;;;;;27.60;92.30;;;;;;5107464;28;19912;-55
2022/09/09 03:04:24;;;;;;;;;;;27.50;92.20;;;;;;5107455;28;19918;-54
2022/09/09 03:06:51;;;;;;;;;;;27.50;92.20;;;;;;5107690;28;20092;-56
2022/09/09 03:09:17;;;;;;;;;;;27.50;92.20;;;;;;5107440;28;19916;-53
2022/09/09 03:11:43;;;;;;;;;;;27.50;92.30;;;;;;5107564;28;20150;-56
2022/09/09 03:14:11;;;;;;;;;;;27.50;92.30;;;;;;5107219;28;19995;-58
2022/09/09 03:16:37;;;;;;;;;;;27.50;92.40;;;;;;5107038;28;20032;-56
2022/09/09 03:19:03;;;;;;;;;;;27.50;92.40;;;;;;5107340;28;20135;-56
2022/09/09 03:21:29;;;;;;;;;;;27.40;92.40;;;;;;5107135;28;19944;-56
2022/09/09 03:23:57;;;;;;;;;;;27.50;92.40;;;;;;5107153;28;19912;-53
2022/09/09 03:26:23;;;;;;;;;;;27.40;92.40;;;;;;5107235;28;20081;-57
2022/09/09 03:28:51;;;;;;;;;;;27.50;92.40;;;;;;5106978;28;20226;-55
2022/09/09 03:31:19;;;;;;;;;;;27.40;92.40;;;;;;5107199;28;20292;-56
2022/09/09 03:33:45;;;;;;;;;;;27.40;92.50;;;;;;5106925;28;20108;-55
2022/09/09 03:36:11;;;;;;;;;;;27.40;92.50;;;;;;5107342;28;20184;-54
2022/09/09 03:38:37;;;;;;;;;;;27.40;92.50;;;;;;5106547;28;19908;-51
2022/09/09 03:41:06;;;;;;;;;;;27.30;92.50;;;;;;5107205;28;19912;-53
2022/09/09 03:43:33;;;;;;;;;;;27.30;92.50;;;;;;5106923;28;19904;-59
2022/09/09 03:45:59;;;;;;;;;;;27.30;92.60;;;;;;5107179;28;19912;-54
2022/09/09 03:48:27;;;;;;;;;;;27.30;92.60;;;;;;5106669;28;19904;-53
2022/09/09 03:50:55;;;;;;;;;;;27.30;92.60;;;;;;5107154;28;20174;-53
2022/09/09 03:53:22;;;;;;;;;;;27.30;92.70;;;;;;5106538;28;20231;-53
2022/09/09 03:55:55;;;;;;;;;;;27.30;92.70;;;;;;5106929;28;19991;-54
2022/09/09 03:58:23;;;;;;;;;;;27.30;92.90;;;;;;5106640;28;19987;-54
2022/09/09 04:01:20;;;;;;;;;;;27.30;92.70;;;;;;5106659;28;19985;-56
2022/09/09 04:03:46;;;;;;;;;;;27.30;92.70;;;;;;5089531;28;19908;-55
2022/09/09 04:06:14;;;;;;;;;;;27.30;92.80;;;;;;5106257;28;19912;-54
2022/09/09 04:08:41;;;;;;;;;;;27.30;92.80;;;;;;5106369;28;19999;-55
2022/09/09 04:11:07;;;;;;;;;;;27.20;92.70;;;;;;5106608;28;19922;-51
2022/09/09 04:13:34;;;;;;;;;;;27.20;92.70;;;;;;5106245;28;19971;-54
2022/09/09 04:16:02;;;;;;;;;;;27.20;92.70;;;;;;5106378;28;19916;-56
2022/09/09 04:18:28;;;;;;;;;;;27.20;92.70;;;;;;5105955;28;19915;-53
2022/09/09 04:20:56;;;;;;;;;;;27.20;92.70;;;;;;5106599;28;20092;-52
2022/09/09 04:23:24;;;;;;;;;;;27.20;92.70;;;;;;5106047;28;19965;-53
2022/09/09 04:25:52;;;;;;;;;;;27.20;92.80;;;;;;5106294;28;19916;-56
2022/09/09 04:28:19;;;;;;;;;;;27.20;92.80;;;;;;5106239;28;20103;-58
2022/09/09 04:30:45;;;;;;;;;;;27.20;92.90;;;;;;5106301;28;19996;-54
2022/09/09 04:33:12;;;;;;;;;;;27.20;92.90;;;;;;5105836;28;19915;-58
2022/09/09 04:35:38;;;;;;;;;;;27.10;92.90;;;;;;5106189;28;19923;-55
2022/09/09 04:38:07;;;;;;;;;;;27.10;92.90;;;;;;5105854;28;19904;-55
2022/09/09 04:40:33;;;;;;;;;;;27.10;92.90;;;;;;5105907;28;19912;-53
2022/09/09 04:43:00;;;;;;;;;;;27.10;92.90;;;;;;5105860;28;20184;-54
2022/09/09 04:45:26;;;;;;;;;;;27.10;93.00;;;;;;5105983;28;19954;-56
2022/09/09 04:47:54;;;;;;;;;;;27.10;93.00;;;;;;5105409;28;19908;-55
2022/09/09 04:50:23;;;;;;;;;;;27.10;93.10;;;;;;5104570;28;19912;-55
2022/09/09 04:52:49;;;;;;;;;;;27.00;93.00;;;;;;5105596;28;19908;-57
2022/09/09 04:55:15;;;;;;;;;;;27.00;93.00;;;;;;5105491;28;19920;-56
2022/09/09 04:57:41;;;;;;;;;;;27.00;93.00;;;;;;5105494;28;20219;-55
2022/09/09 05:00:08;;;;;;;;;;;27.00;93.10;;;;;;5105585;28;19916;-56
2022/09/09 05:02:37;;;;;;;;;;;27.00;93.10;;;;;;5105190;28;20250;-55
2022/09/09 05:05:03;;;;;;;;;;;27.00;93.20;;;;;;5105621;28;19912;-55
2022/09/09 05:07:31;;;;;;;;;;;26.90;93.20;;;;;;5105319;28;19904;-57
2022/09/09 05:09:57;;;;;;;;;;;26.90;93.30;;;;;;5105206;28;19912;-54
2022/09/09 05:12:26;;;;;;;;;;;26.90;93.30;;;;;;5105183;28;19975;-59
2022/09/09 05:14:53;;;;;;;;;;;26.90;93.30;;;;;;5105272;28;19950;-54
2022/09/09 05:17:19;;;;;;;;;;;26.90;93.40;;;;;;5104630;28;19951;-54
2022/09/09 05:19:45;;;;;;;;;;;26.90;93.50;;;;;;5105246;28;19912;-56
2022/09/09 05:22:12;;;;;;;;;;;26.90;93.50;;;;;;5104905;28;19908;-53
2022/09/09 05:24:38;;;;;;;;;;;26.90;93.50;;;;;;5104865;28;19912;-56
2022/09/09 05:27:05;;;;;;;;;;;26.90;93.60;;;;;;5105099;28;19904;-54
2022/09/09 05:29:35;;;;;;;;;;;26.80;93.60;;;;;;5105140;28;19924;-55
2022/09/09 05:32:01;;;;;;;;;;;26.80;93.60;;;;;;5104661;28;19908;-56
2022/09/09 05:34:27;;;;;;;;;;;26.80;93.60;;;;;;5104781;28;19927;-63
2022/09/09 05:36:53;;;;;;;;;;;26.80;93.60;;;;;;5104698;28;19916;-54
2022/09/09 05:39:19;;;;;;;;;;;26.80;93.70;;;;;;5104726;28;19983;-58
2022/09/09 05:41:45;;;;;;;;;;;26.80;93.60;;;;;;5104932;28;19920;-57
2022/09/09 05:44:12;;;;;;;;;;;26.80;93.60;;;;;;5104726;28;19949;-56
2022/09/09 05:46:38;;;;;;;;;;;26.80;93.70;;;;;;5104632;28;19931;-57
2022/09/09 05:49:05;;;;;;;;;;;26.80;93.70;;;;;;5104373;28;20216;-55
2022/09/09 05:51:31;;;;;;;;;;;26.80;93.60;;;;;;5104513;28;19908;-55
2022/09/09 05:54:00;;;;;;;;;;;26.80;93.60;;;;;;5104563;28;20200;-54
2022/09/09 05:56:27;;;;;;;;;;;26.80;93.60;;;;;;5104357;28;19987;-53
2022/09/09 05:58:54;;;;;;;;;;;26.80;93.60;;;;;;5104330;28;19972;-54
2022/09/09 06:01:29;;;;;;;;;;;26.80;93.60;;;;;;5104053;28;19932;-54
2022/09/09 06:03:55;;;;;;;;;;;26.80;93.70;;;;;;5104439;28;19944;-56
2022/09/09 06:06:23;;;;;;;;;;;26.80;93.60;;;;;;5104387;28;19915;-52
2022/09/09 06:08:57;;;;;;;;;;;26.80;93.60;;;;;;5104050;28;19949;-56
2022/09/09 06:11:26;;;;;;;;;;;26.80;93.90;;;;;;5104278;28;19915;-55
2022/09/09 06:13:54;;;;;;;;;;;26.80;93.60;;;;;;5104216;28;19908;-55
2022/09/09 06:16:23;;;;;;;;;;;26.80;93.60;;;;;;5103860;28;19916;-54
2022/09/09 06:18:50;;;;;;;;;;;26.70;93.60;;;;;;5104103;28;19904;-53
2022/09/09 06:21:25;;;;;;;;;;;26.70;93.60;;;;;;5104193;28;19977;-57
2022/09/09 06:23:52;;;;;;;;;;;26.70;93.50;;;;;;5104383;28;19915;-56
2022/09/09 06:26:20;;;;;;;;;;;26.70;93.50;;;;;;5104450;28;19942;-56
2022/09/09 06:28:47;;;;;;;;;;;26.70;93.60;;;;;;5104229;28;20022;-60
2022/09/09 06:31:14;;;;;;;;;;;26.70;93.60;;;;;;5104644;28;19912;-56
2022/09/09 06:33:41;;;;;;;;;;;26.70;93.60;;;;;;5104164;28;19946;-56
2022/09/09 06:36:10;;;;;;;;;;;26.70;93.50;;;;;;5104593;28;19920;-54
2022/09/09 06:38:37;;;;;;;;;;;26.70;93.60;;;;;;5104051;28;20105;-54
2022/09/09 06:41:05;;;;;;;;;;;26.60;93.50;;;;;;5104459;28;19940;-55
2022/09/09 06:43:31;;;;;;;;;;;26.60;93.60;;;;;;5104048;28;19908;-56
2022/09/09 06:46:04;;;;;;;;;;;26.60;93.60;;;;;;5104498;28;19989;-56
2022/09/09 06:48:30;;;;;;;;;;;26.60;93.60;;;;;;5103888;28;20096;-54
2022/09/09 06:51:01;;;;;;;;;;;26.60;93.60;;;;;;5104211;28;19912;-55
2022/09/09 06:53:27;;;;;;;;;;;26.60;93.60;;;;;;5103917;28;19908;-53
2022/09/09 06:55:54;;;;;;;;;;;26.60;93.70;;;;;;5104377;28;19935;-53
2022/09/09 06:58:23;;;;;;;;;;;26.60;93.70;;;;;;5103721;28;19908;-52
2022/09/09 07:00:49;;;;;;;;;;;26.60;93.70;;;;;;5104178;28;20074;-53
2022/09/09 07:03:16;;;;;;;;;;;26.60;93.60;;;;;;5103822;28;19908;-52
2022/09/09 07:05:44;;;;;;;;;;;26.60;93.60;;;;;;5104078;28;19946;-55
2022/09/09 07:08:10;;;;;;;;;;;26.60;93.70;;;;;;5103705;28;19943;-57
2022/09/09 07:10:37;;;;;;;;;;;26.60;93.60;;;;;;5103818;28;19915;-55
2022/09/09 07:13:04;;;;;;;;;;;26.50;93.70;;;;;;5104003;28;20231;-55
2022/09/09 07:15:32;;;;;;;;;;;26.50;93.70;;;;;;5107712;28;19916;-53
2022/09/09 07:18:01;;;;;;;;;;;26.50;93.70;;;;;;5107204;28;19946;-57
2022/09/09 07:20:27;;;;;;;;;;;26.50;93.70;;;;;;5107140;28;20109;-53
2022/09/09 07:22:55;;;;;;;;;;;26.50;93.70;;;;;;5107298;28;19904;-54
2022/09/09 07:25:21;;;;;;;;;;;26.50;93.70;;;;;;5107553;28;19912;-53
2022/09/09 07:27:48;;;;;;;;;;;26.50;93.60;;;;;;5106984;28;19908;-53
2022/09/09 07:30:14;;;;;;;;;;;26.50;93.70;;;;;;5107420;28;19919;-54
2022/09/09 07:32:40;;;;;;;;;;;26.50;93.70;;;;;;5107316;28;20155;-57
2022/09/09 07:35:07;;;;;;;;;;;26.50;93.70;;;;;;5107076;28;19915;-53
2022/09/09 07:37:35;;;;;;;;;;;26.50;93.80;;;;;;5107166;28;19923;-54
2022/09/09 07:40:04;;;;;;;;;;;26.50;93.80;;;;;;5107211;28;19912;-58
2022/09/09 07:42:30;;;;;;;;;;;26.40;93.80;;;;;;5106754;28;20135;-55
2022/09/09 07:44:56;;;;;;;;;;;26.40;93.80;;;;;;5106965;28;19958;-54
2022/09/09 07:47:24;;;;;;;;;;;26.40;93.90;;;;;;5106912;28;20082;-57
2022/09/09 07:49:50;;;;;;;;;;;26.40;93.90;;;;;;5106868;28;19912;-52
2022/09/09 07:52:16;;;;;;;;;;;26.40;93.80;;;;;;5106652;28;19916;-55
2022/09/09 07:54:42;;;;;;;;;;;26.40;93.80;;;;;;5106955;28;19908;-53
2022/09/09 07:57:09;;;;;;;;;;;26.40;93.80;;;;;;5106567;28;20249;-55
2022/09/09 07:59:35;;;;;;;;;;;26.40;93.80;;;;;;5106600;28;19979;-54
2022/09/09 08:02:01;;;;;;;;;;;26.40;93.80;;;;;;5106507;28;20008;-53
2022/09/09 08:04:28;;;;;;;;;;;26.40;93.80;;;;;;5106417;28;19908;-52
2022/09/09 08:06:55;;;;;;;;;;;26.40;93.70;;;;;;5106198;28;19924;-57
2022/09/09 08:09:24;;;;;;;;;;;26.40;93.70;;;;;;5106401;28;19958;-53
2022/09/09 08:11:50;;;;;;;;;;;26.40;93.80;;;;;;5106271;28;19904;-52
2022/09/09 08:14:17;;;;;;;;;;;26.40;93.80;;;;;;5106303;28;19912;-53
2022/09/09 08:16:45;;;;;;;;;;;26.40;93.80;;;;;;5106024;28;19951;-55
2022/09/09 08:19:11;;;;;;;;;;;26.40;93.80;;;;;;5106219;28;19954;-52
2022/09/09 08:21:39;;;;;;;;;;;26.40;93.80;;;;;;5106062;28;19908;-53
2022/09/09 08:24:06;;;;;;;;;;;26.30;93.80;;;;;;5105925;28;20196;-52
2022/09/09 08:26:34;;;;;;;;;;;26.30;93.80;;;;;;5106129;28;19908;-51
2022/09/09 08:29:01;;;;;;;;;;;26.30;93.80;;;;;;5106033;28;20092;-53
2022/09/09 08:31:28;;;;;;;;;;;26.30;93.90;;;;;;5106009;28;20192;-55
2022/09/09 08:33:55;;;;;;;;;;;26.30;93.90;;;;;;5105881;28;19911;-55
2022/09/09 08:36:22;;;;;;;;;;;26.30;94.00;;;;;;5105957;28;20155;-54
2022/09/09 08:38:50;;;;;;;;;;;26.30;93.90;;;;;;5105759;28;19954;-54
2022/09/09 08:41:19;;;;;;;;;;;26.30;93.90;;;;;;5105707;28;19915;-53
2022/09/09 08:43:47;;;;;;;;;;;26.30;93.90;;;;;;5105746;28;20197;-55
2022/09/09 08:46:22;;;;;;;;;;;26.30;93.90;;;;;;5105618;28;19912;-53
2022/09/09 08:48:54;;;;;;;;;;;26.30;94.00;;;;;;5105443;28;19947;-54
2022/09/09 08:51:21;;;;;;;;;;;26.30;94.00;;;;;;5105496;28;20100;-58
2022/09/09 08:53:49;;;;;;;;;;;26.30;94.00;;;;;;5105505;28;19904;-54
2022/09/09 08:56:21;;;;;;;;;;;26.20;94.00;;;;;;5105343;28;20124;-55
2022/09/09 08:58:51;;;;;;;;;;;26.20;94.00;;;;;;5105293;28;19919;-57
2022/09/09 09:01:32;;;;;;;;;;;26.20;94.00;;;;;;5105176;28;20112;-55
2022/09/09 09:04:17;;;;;;;;;;;26.20;94.00;;;;;;5105266;28;19904;-55
2022/09/09 09:07:02;;;;;;;;;;;26.20;94.00;;;;;;5105210;28;19931;-55
2022/09/09 09:09:28;;;;;;;;;;;26.20;94.00;;;;;;5105221;28;19930;-53
2022/09/09 09:12:00;;;;;;;;;;;26.20;94.10;;;;;;5105118;28;19908;-57
2022/09/09 09:14:28;;;;;;;;;;;26.20;94.10;;;;;;5105198;28;19912;-58
2022/09/09 09:16:59;;;;;;;;;;;26.20;94.20;;;;;;5104932;28;19987;-54
2022/09/09 09:19:28;;;;;;;;;;;26.10;94.20;;;;;;5105105;28;19982;-53
2022/09/09 09:22:10;;;;;;;;;;;26.20;94.20;;;;;;5104987;28;19957;-54
2022/09/09 09:24:43;;;;;;;;;;;26.10;94.10;;;;;;5104979;28;19912;-54
2022/09/09 09:27:18;;;;;;;;;;;26.10;94.10;;;;;;5105017;28;19942;-53
2022/09/09 09:29:45;;;;;;;;;;;26.10;94.10;;;;;;5104843;28;19935;-51
2022/09/09 09:32:14;;;;;;;;;;;26.10;94.20;;;;;;5104685;28;19905;-54
2022/09/09 09:34:40;;;;;;;;;;;26.20;94.20;;;;;;5104879;28;19912;-54
2022/09/09 09:37:16;;;;;;;;;;;26.10;94.10;;;;;;5104184;28;20135;-53
2022/09/09 09:39:43;;;;;;;;;;;26.10;94.10;;;;;;5104805;28;19919;-56
2022/09/09 09:42:13;;;;;;;;;;;26.10;94.40;;;;;;5104778;28;19967;-52
2022/09/09 09:44:40;;;;;;;;;;;26.10;94.10;;;;;;5104582;28;19913;-57
2022/09/09 09:47:06;;;;;;;;;;;26.10;94.10;;;;;;5104655;28;20184;-57
2022/09/09 09:49:33;;;;;;;;;;;26.10;94.10;;;;;;5104765;28;20200;-57
2022/09/09 09:52:06;;;;;;;;;;;26.10;94.10;;;;;;5104353;28;19908;-57
2022/09/09 09:54:35;;;;;;;;;;;26.10;94.20;;;;;;5104603;28;19912;-53
2022/09/09 09:57:12;;;;;;;;;;;26.10;94.20;;;;;;5104399;28;19912;-51
2022/09/09 09:59:39;;;;;;;;;;;26.10;94.20;;;;;;5104717;28;19908;-53
2022/09/09 10:02:13;;;;;;;;;;;26.10;94.20;;;;;;5104293;28;19908;-52
2022/09/09 10:04:41;;;;;;;;;;;26.10;94.20;;;;;;5104348;28;19912;-54
2022/09/09 10:07:13;;;;;;;;;;;26.10;94.20;;;;;;5104347;28;19908;-56
2022/09/09 10:09:40;;;;;;;;;;;26.10;94.20;;;;;;5104498;28;19914;-53
2022/09/09 10:12:13;;;;;;;;;;;26.10;94.30;;;;;;5104162;28;19915;-56
2022/09/09 10:14:52;;;;;;;;;;;26.10;94.50;;;;;;5104450;28;19943;-53
2022/09/09 10:17:27;;;;;;;;;;;26.00;94.30;;;;;;5103767;28;19916;-50
2022/09/09 10:19:58;;;;;;;;;;;26.00;94.20;;;;;;5104390;28;19979;-55
2022/09/09 10:22:28;;;;;;;;;;;26.00;94.20;;;;;;5104208;28;20165;-56
2022/09/09 10:25:06;;;;;;;;;;;26.00;94.20;;;;;;5104491;28;19923;-57
2022/09/09 10:27:41;;;;;;;;;;;26.00;94.20;;;;;;5104030;28;20082;-56
2022/09/09 10:30:14;;;;;;;;;;;26.00;94.20;;;;;;5104269;28;20137;-55
2022/09/09 10:32:58;;;;;;;;;;;26.00;94.20;;;;;;5104108;28;19908;-55
2022/09/09 10:35:36;;;;;;;;;;;26.00;94.20;;;;;;5104056;28;19916;-52
2022/09/09 10:38:17;;;;;;;;;;;26.00;94.20;;;;;;5104032;28;20251;-57
2022/09/09 10:40:45;;;;;;;;;;;26.00;94.30;;;;;;5104593;28;20252;-55
2022/09/09 10:43:17;;;;;;;;;;;26.00;94.30;;;;;;5104003;28;19908;-52
2022/09/09 10:45:43;;;;;;;;;;;25.90;94.30;;;;;;5104243;28;19935;-55
2022/09/09 10:48:30;;;;;;;;;;;26.00;94.40;;;;;;5104517;28;20104;-56
2022/09/09 10:51:05;;;;;;;;;;;26.00;94.40;;;;;;5108089;28;19919;-56
2022/09/09 10:53:34;;;;;;;;;;;26.00;94.40;;;;;;5108087;28;19908;-57
2022/09/09 10:56:08;;;;;;;;;;;26.00;94.50;;;;;;5108220;28;19923;-58
2022/09/09 10:58:49;;;;;;;;;;;26.00;94.50;;;;;;5107542;28;19908;-55
2022/09/09 11:01:26;;;;;;;;;;;26.00;94.50;;;;;;5107417;28;19913;-53
2022/09/09 11:03:58;;;;;;;;;;;26.00;94.50;;;;;;5089397;28;19908;-55
2022/09/09 11:06:28;;;;;;;;;;;26.00;94.50;;;;;;5107652;28;19908;-54
2022/09/09 11:08:55;;;;;;;;;;;26.00;94.50;;;;;;5107364;28;19907;-55
2022/09/09 11:11:26;;;;;;;;;;;26.00;94.60;;;;;;5107545;28;19915;-57
2022/09/09 11:13:54;;;;;;;;;;;26.00;94.60;;;;;;5107432;28;19943;-54
2022/09/09 11:16:23;;;;;;;;;;;26.00;94.60;;;;;;5107005;28;19951;-53
2022/09/09 11:18:50;;;;;;;;;;;26.00;94.60;;;;;;5107073;28;19908;-53
2022/09/09 11:21:26;;;;;;;;;;;26.10;94.70;;;;;;5107108;28;19908;-54
2022/09/09 11:24:01;;;;;;;;;;;26.10;94.70;;;;;;5107049;28;19905;-55
2022/09/09 11:26:38;;;;;;;;;;;26.10;94.70;;;;;;5107121;28;19946;-53
2022/09/09 11:29:20;;;;;;;;;;;26.10;94.70;;;;;;5107152;28;19904;-56
2022/09/09 11:31:58;;;;;;;;;;;26.10;94.80;;;;;;5107005;28;19908;-56
2022/09/09 11:34:49;;;;;;;;;;;26.10;94.80;;;;;;5107076;28;19915;-57
2022/09/09 11:37:34;;;;;;;;;;;26.10;94.80;;;;;;5106831;28;19943;-55
2022/09/09 11:40:15;;;;;;;;;;;26.10;94.80;;;;;;5107088;28;19975;-54
2022/09/09 11:42:42;;;;;;;;;;;26.20;94.90;;;;;;5106819;28;19912;-57
2022/09/09 11:45:23;;;;;;;;;;;26.20;95.00;;;;;;5107051;28;19908;-55
2022/09/09 11:47:53;;;;;;;;;;;26.20;95.00;;;;;;5106576;28;19912;-55
2022/09/09 11:50:19;;;;;;;;;;;26.20;95.00;;;;;;5107043;28;19912;-57
2022/09/09 11:52:48;;;;;;;;;;;26.20;95.00;;;;;;5106843;28;19908;-54
2022/09/09 11:55:36;;;;;;;;;;;26.20;95.00;;;;;;5106829;28;20218;-57
2022/09/09 11:58:03;;;;;;;;;;;26.20;95.00;;;;;;5106620;28;19975;-55
2022/09/09 12:00:35;;;;;;;;;;;26.30;95.00;;;;;;5106164;28;20187;-58
2022/09/09 12:03:01;;;;;;;;;;;26.30;95.10;;;;;;5106474;28;19949;-54
2022/09/09 12:05:39;;;;;;;;;;;26.30;95.10;;;;;;5106885;28;20180;-57
2022/09/09 12:08:05;;;;;;;;;;;26.30;95.00;;;;;;5106519;28;19919;-56
2022/09/09 12:10:33;;;;;;;;;;;26.30;95.10;;;;;;5106930;28;19912;-58
2022/09/09 12:13:21;;;;;;;;;;;26.40;95.10;;;;;;5106306;28;19961;-57
2022/09/09 12:15:49;;;;;;;;;;;26.40;95.00;;;;;;5106605;28;19916;-59
2022/09/09 12:18:25;;;;;;;;;;;26.40;95.10;;;;;;5105941;28;20195;-56
2022/09/09 12:20:59;;;;;;;;;;;26.40;95.00;;;;;;5106729;28;19975;-55
2022/09/09 12:23:46;;;;;;;;;;;26.50;95.00;;;;;;5106234;28;20027;-54
2022/09/09 12:26:15;;;;;;;;;;;26.50;95.00;;;;;;5106307;28;19987;-54
2022/09/09 12:28:51;;;;;;;;;;;26.50;95.00;;;;;;5105972;28;19904;-53
2022/09/09 12:31:22;;;;;;;;;;;26.50;95.10;;;;;;5106167;28;19935;-56
2022/09/09 12:33:48;;;;;;;;;;;26.60;95.00;;;;;;5105809;28;19911;-55
2022/09/09 12:36:19;;;;;;;;;;;26.60;95.00;;;;;;5105653;28;20036;-53
2022/09/09 12:38:45;;;;;;;;;;;26.60;95.10;;;;;;5105773;28;19908;-58
2022/09/09 12:41:38;;;;;;;;;;;26.60;95.00;;;;;;5106273;28;20181;-54
2022/09/09 12:44:05;;;;;;;;;;;26.60;95.00;;;;;;5101941;28;19908;-54
2022/09/09 12:46:45;;;;;;;;;;;26.60;95.00;;;;;;5105676;28;19904;-55
2022/09/09 12:49:23;;;;;;;;;;;26.60;95.10;;;;;;5105665;28;19912;-57
2022/09/09 12:51:49;;;;;;;;;;;26.60;95.10;;;;;;5105593;28;20196;-58
2022/09/09 12:54:15;;;;;;;;;;;26.60;95.10;;;;;;5105498;28;19912;-54
2022/09/09 12:56:45;;;;;;;;;;;26.60;95.00;;;;;;5105416;28;19949;-57
2022/09/09 12:59:22;;;;;;;;;;;26.60;95.00;;;;;;5105531;28;19916;-56
2022/09/09 13:01:55;;;;;;;;;;;26.70;95.20;;;;;;5105331;28;19910;-55
2022/09/09 13:04:22;;;;;;;;;;;26.70;95.40;;;;;;5105429;28;19919;-55
2022/09/09 13:06:49;;;;;;;;;;;26.70;95.20;;;;;;5105148;28;20002;-56
2022/09/09 13:09:15;;;;;;;;;;;26.70;95.30;;;;;;5105236;28;19983;-56
2022/09/09 13:11:43;;;;;;;;;;;26.70;95.20;;;;;;5104424;28;19908;-59
2022/09/09 13:14:18;;;;;;;;;;;26.70;95.10;;;;;;5105037;28;19913;-58
2022/09/09 13:16:54;;;;;;;;;;;26.70;95.10;;;;;;5102776;28;19923;-57
2022/09/09 13:19:21;;;;;;;;;;;26.70;95.20;;;;;;5104933;28;19918;-57
2022/09/09 13:21:47;;;;;;;;;;;26.70;95.20;;;;;;5104985;28;20239;-57
2022/09/09 13:24:23;;;;;;;;;;;26.80;95.30;;;;;;5105156;28;19919;-54
2022/09/09 13:27:01;;;;;;;;;;;26.80;95.30;;;;;;5104772;28;19985;-53
2022/09/09 13:29:28;;;;;;;;;;;26.80;95.30;;;;;;5104999;28;19950;-58
2022/09/09 13:31:55;;;;;;;;;;;26.80;95.20;;;;;;5104807;28;20108;-54
2022/09/09 13:34:27;;;;;;;;;;;26.80;95.20;;;;;;5105078;28;19920;-58
2022/09/09 13:36:58;;;;;;;;;;;26.80;95.40;;;;;;5105085;28;19978;-59
2022/09/09 13:39:24;;;;;;;;;;;26.80;95.30;;;;;;5104673;28;19919;-58
2022/09/09 13:41:51;;;;;;;;;;;26.80;95.20;;;;;;5104513;28;20131;-57
2022/09/09 13:44:19;;;;;;;;;;;26.90;95.20;;;;;;5104653;28;19916;-56
2022/09/09 13:46:47;;;;;;;;;;;26.90;95.20;;;;;;5104635;28;19979;-56
2022/09/09 13:49:13;;;;;;;;;;;26.80;95.10;;;;;;5096176;28;20001;-56
2022/09/09 13:51:39;;;;;;;;;;;26.80;95.10;;;;;;5104638;28;19904;-56
2022/09/09 13:54:06;;;;;;;;;;;26.90;95.10;;;;;;5104312;28;19915;-54
2022/09/09 13:56:34;;;;;;;;;;;26.90;95.10;;;;;;5104358;28;19912;-55
2022/09/09 13:59:00;;;;;;;;;;;26.90;95.10;;;;;;5104496;28;19944;-54
2022/09/09 14:01:27;;;;;;;;;;;26.90;95.00;;;;;;5104161;28;19908;-57
2022/09/09 14:03:53;;;;;;;;;;;26.90;95.00;;;;;;5104271;28;19908;-54
2022/09/09 14:06:21;;;;;;;;;;;26.90;95.00;;;;;;5104348;28;19908;-59
2022/09/09 14:08:49;;;;;;;;;;;26.90;94.90;;;;;;5104151;28;19981;-57
2022/09/09 14:11:15;;;;;;;;;;;27.00;94.90;;;;;;5104291;28;20053;-57
2022/09/09 14:13:41;;;;;;;;;;;27.00;94.90;;;;;;5104333;28;19904;-57
2022/09/09 14:16:07;;;;;;;;;;;27.00;94.80;;;;;;5104632;28;19920;-53
2022/09/09 14:18:33;;;;;;;;;;;27.00;94.80;;;;;;5104119;28;19916;-57
2022/09/09 14:20:59;;;;;;;;;;;27.10;94.70;;;;;;5104666;28;19912;-54
2022/09/09 14:23:26;;;;;;;;;;;27.10;94.60;;;;;;5107185;28;19911;-55
2022/09/09 14:25:52;;;;;;;;;;;27.10;94.60;;;;;;5108757;28;19971;-55
2022/09/09 14:28:18;;;;;;;;;;;27.10;94.50;;;;;;5108342;28;19908;-54
2022/09/09 14:30:44;;;;;;;;;;;27.10;94.50;;;;;;5108720;28;19915;-53
2022/09/09 14:33:12;;;;;;;;;;;27.10;94.40;;;;;;5108106;28;19983;-56